Time;durP1;ratioP1;P1;durP2;ratioP2;P2;SDS_P1;SDS_P2;PMS_P1;PMS_P2;Temp;Humidity;BMP_temperature;BMP_pressure;BME280_temperature;BME280_humidity;BME280_pressure;Samples;Min_cycle;Max_cycle;Signal;HPM_P1;HPM_P2
2023/07/13 00:00:20;;;;;;;;;;;;;;;;;;5033045;28;19925;-65
2023/07/13 00:02:46;;;;;;;;;;;;;;;;;;5032878;28;19983;-65
2023/07/13 00:05:12;;;;;;;;;;;;;;;;;;5032645;28;19969;-65
2023/07/13 00:07:38;;;;;;;;;;;;;;;;;;5032845;28;19995;-65
2023/07/13 00:10:04;;;;;;;;;;;;;;;;;;5032689;28;19956;-65
2023/07/13 00:12:29;;;;;;;;;;;;;;;;;;5032698;28;19924;-65
2023/07/13 00:14:55;;;;;;;;;;;;;;;;;;5032927;28;19921;-65
2023/07/13 00:17:21;;;;;;;;;;;;;;;;;;5033161;28;20350;-66
2023/07/13 00:19:47;;;;;;;;;;;;;;;;;;5033514;28;20028;-65
2023/07/13 00:22:13;;;;;;;;;;;;;;;;;;5033526;28;19933;-65
2023/07/13 00:24:41;;;;;;;;;;;;;;;;;;5033258;28;19921;-65
2023/07/13 00:27:07;;;;;;;;;;;;;;;;;;5033380;28;19925;-65
2023/07/13 00:29:33;;;;;;;;;;;;;;;;;;5033448;28;19925;-64
2023/07/13 00:31:59;;;;;;;;;;;;;;;;;;5033572;28;20267;-64
2023/07/13 00:34:26;;;;;;;;;;;;;;;;;;5033476;28;19933;-64
2023/07/13 00:36:52;;;;;;;;;;;;;;;;;;5033180;28;19925;-64
2023/07/13 00:39:18;;;;;;;;;;;;;;;;;;5033204;28;19921;-65
2023/07/13 00:41:44;;;;;;;;;;;;;;;;;;5031942;28;20002;-65
2023/07/13 00:44:10;;;;;;;;;;;;;;;;;;5033270;28;20015;-65
2023/07/13 00:46:36;;;;;;;;;;;;;;;;;;5033086;28;20032;-65
2023/07/13 00:49:02;;;;;;;;;;;;;;;;;;5033132;28;20062;-65
2023/07/13 00:51:28;;;;;;;;;;;;;;;;;;5032743;28;19978;-65
2023/07/13 00:53:54;;;;;;;;;;;;;;;;;;5031622;28;20018;-65
2023/07/13 00:56:20;;;;;;;;;;;;;;;;;;5032851;28;20282;-65
2023/07/13 00:58:45;;;;;;;;;;;;;;;;;;5033008;28;20071;-65
2023/07/13 01:01:12;;;;;;;;;;;;;;;;;;5032848;28;20003;-64
2023/07/13 01:03:40;;;;;;;;;;;;;;;;;;5032810;28;19925;-65
2023/07/13 01:06:06;;;;;;;;;;;;;;;;;;5032618;28;19921;-65
2023/07/13 01:08:32;;;;;;;;;;;;;;;;;;5032622;28;20270;-65
2023/07/13 01:10:58;;;;;;;;;;;;;;;;;;5032608;28;20039;-65
2023/07/13 01:13:24;;;;;;;;;;;;;;;;;;5031367;28;20020;-65
2023/07/13 01:15:51;;;;;;;;;;;;;;;;;;5032355;28;20422;-65
2023/07/13 01:18:18;;;;;;;;;;;;;;;;;;5030952;28;19971;-65
2023/07/13 01:20:44;;;;;;;;;;;;;;;;;;5032231;28;20727;-64
2023/07/13 01:23:10;;;;;;;;;;;;;;;;;;5030979;28;19925;-65
2023/07/13 01:25:36;;;;;;;;;;;;;;;;;;5032073;28;19921;-65
2023/07/13 01:28:02;;;;;;;;;;;;;;;;;;5032503;28;19921;-65
2023/07/13 01:30:27;;;;;;;;;;;;;;;;;;5032221;28;20387;-65
2023/07/13 01:32:53;;;;;;;;;;;;;;;;;;5032266;28;19929;-64
2023/07/13 01:35:19;;;;;;;;;;;;;;;;;;5032305;28;19921;-64
2023/07/13 01:37:45;;;;;;;;;;;;;;;;;;5032155;28;19921;-64
2023/07/13 01:40:12;;;;;;;;;;;;;;;;;;5032042;28;19964;-65
2023/07/13 01:42:37;;;;;;;;;;;;;;;;;;5032101;28;19967;-65
2023/07/13 01:45:03;;;;;;;;;;;;;;;;;;5030902;28;20355;-65
2023/07/13 01:47:30;;;;;;;;;;;;;;;;;;5032056;28;19944;-64
2023/07/13 01:49:56;;;;;;;;;;;;;;;;;;5031989;28;20367;-65
2023/07/13 01:52:22;;;;;;;;;;;;;;;;;;5030492;28;19925;-64
2023/07/13 01:54:48;;;;;;;;;;;;;;;;;;5031965;28;19935;-65
2023/07/13 01:57:14;;;;;;;;;;;;;;;;;;5031661;28;19925;-65
2023/07/13 01:59:40;;;;;;;;;;;;;;;;;;5030822;28;20427;-65
2023/07/13 02:02:06;;;;;;;;;;;;;;;;;;5031222;28;19921;-66
2023/07/13 02:04:32;;;;;;;;;;;;;;;;;;5031176;28;19940;-66
2023/07/13 02:06:58;;;;;;;;;;;;;;;;;;5030927;28;19947;-65
2023/07/13 02:09:24;;;;;;;;;;;;;;;;;;5031404;28;19975;-65
2023/07/13 02:11:50;;;;;;;;;;;;;;;;;;5032016;28;20287;-65
2023/07/13 02:14:15;;;;;;;;;;;;;;;;;;5031978;28;19925;-65
2023/07/13 02:16:41;;;;;;;;;;;;;;;;;;5031762;28;19929;-65
2023/07/13 02:19:07;;;;;;;;;;;;;;;;;;5031814;28;19968;-65
2023/07/13 02:21:33;;;;;;;;;;;;;;;;;;5031643;28;19921;-65
2023/07/13 02:23:59;;;;;;;;;;;;;;;;;;5031816;28;19925;-64
2023/07/13 02:26:25;;;;;;;;;;;;;;;;;;5031995;28;19928;-65
2023/07/13 02:28:51;;;;;;;;;;;;;;;;;;5034440;28;19921;-65
2023/07/13 02:31:17;;;;;;;;;;;;;;;;;;5035738;28;19975;-64
2023/07/13 02:33:43;;;;;;;;;;;;;;;;;;5035448;28;19932;-65
2023/07/13 02:36:09;;;;;;;;;;;;;;;;;;5035564;28;19925;-64
2023/07/13 02:38:36;;;;;;;;;;;;;;;;;;5035720;28;19921;-65
2023/07/13 02:41:02;;;;;;;;;;;;;;;;;;5035858;28;19959;-65
2023/07/13 02:43:27;;;;;;;;;;;;;;;;;;5035470;28;20018;-64
2023/07/13 02:45:54;;;;;;;;;;;;;;;;;;5035499;28;20439;-65
2023/07/13 02:48:19;;;;;;;;;;;;;;;;;;5035363;28;19928;-65
2023/07/13 02:50:45;;;;;;;;;;;;;;;;;;5035385;28;19924;-64
2023/07/13 02:53:11;;;;;;;;;;;;;;;;;;5035050;28;19929;-64
2023/07/13 02:55:37;;;;;;;;;;;;;;;;;;5035362;28;20248;-64
2023/07/13 02:58:03;;;;;;;;;;;;;;;;;;5035149;28;19975;-65
2023/07/13 03:00:29;;;;;;;;;;;;;;;;;;5033708;28;19975;-64
2023/07/13 03:02:57;;;;;;;;;;;;;;;;;;5035109;28;19928;-64
2023/07/13 03:05:23;;;;;;;;;;;;;;;;;;5035146;28;19932;-64
2023/07/13 03:07:49;;;;;;;;;;;;;;;;;;5035125;28;19925;-64
2023/07/13 03:10:16;;;;;;;;;;;;;;;;;;5034872;28;19921;-64
2023/07/13 03:12:41;;;;;;;;;;;;;;;;;;5034840;28;19979;-64
2023/07/13 03:15:07;;;;;;;;;;;;;;;;;;5034962;28;19921;-64
2023/07/13 03:17:33;;;;;;;;;;;;;;;;;;5033351;28;19924;-65
2023/07/13 03:19:59;;;;;;;;;;;;;;;;;;5034873;28;20349;-64
2023/07/13 03:22:25;;;;;;;;;;;;;;;;;;5033534;28;19928;-64
2023/07/13 03:24:51;;;;;;;;;;;;;;;;;;5034718;28;20011;-65
2023/07/13 03:27:17;;;;;;;;;;;;;;;;;;5033000;28;20054;-64
2023/07/13 03:29:43;;;;;;;;;;;;;;;;;;5034244;28;19956;-64
2023/07/13 03:32:09;;;;;;;;;;;;;;;;;;5034272;28;20412;-64
2023/07/13 03:34:35;;;;;;;;;;;;;;;;;;5033945;28;20298;-64
2023/07/13 03:37:01;;;;;;;;;;;;;;;;;;5033524;28;19921;-64
2023/07/13 03:39:26;;;;;;;;;;;;;;;;;;5031267;28;19968;-64
2023/07/13 03:41:52;;;;;;;;;;;;;;;;;;5034004;28;20429;-64
2023/07/13 03:44:18;;;;;;;;;;;;;;;;;;5034231;28;19960;-64
2023/07/13 03:46:44;;;;;;;;;;;;;;;;;;5034238;28;19972;-64
2023/07/13 03:49:10;;;;;;;;;;;;;;;;;;5034079;28;19983;-64
2023/07/13 03:51:36;;;;;;;;;;;;;;;;;;5034063;28;19929;-64
2023/07/13 03:54:02;;;;;;;;;;;;;;;;;;5033685;28;19932;-64
2023/07/13 03:56:28;;;;;;;;;;;;;;;;;;5033192;28;20032;-64
2023/07/13 03:58:54;;;;;;;;;;;;;;;;;;5032484;28;20011;-65
2023/07/13 04:01:20;;;;;;;;;;;;;;;;;;5033329;28;19978;-65
2023/07/13 04:03:47;;;;;;;;;;;;;;;;;;5031707;28;19928;-64
2023/07/13 04:06:15;;;;;;;;;;;;;;;;;;5033714;28;19996;-65
2023/07/13 04:08:41;;;;;;;;;;;;;;;;;;5032288;28;20421;-65
2023/07/13 04:11:06;;;;;;;;;;;;;;;;;;5033811;28;20289;-65
2023/07/13 04:13:32;;;;;;;;;;;;;;;;;;5033574;28;19925;-64
2023/07/13 04:15:58;;;;;;;;;;;;;;;;;;5033829;28;19925;-64
2023/07/13 04:18:24;;;;;;;;;;;;;;;;;;5033557;28;20007;-64
2023/07/13 04:20:50;;;;;;;;;;;;;;;;;;5033698;28;20055;-64
2023/07/13 04:23:16;;;;;;;;;;;;;;;;;;5033394;28;20441;-65
2023/07/13 04:25:42;;;;;;;;;;;;;;;;;;5033504;28;19921;-64
2023/07/13 04:28:08;;;;;;;;;;;;;;;;;;5033549;28;19925;-65
2023/07/13 04:30:34;;;;;;;;;;;;;;;;;;5032002;28;20001;-64
2023/07/13 04:33:00;;;;;;;;;;;;;;;;;;5031998;28;20323;-64
2023/07/13 04:35:26;;;;;;;;;;;;;;;;;;5033305;28;19933;-65
2023/07/13 04:37:51;;;;;;;;;;;;;;;;;;4999933;28;20284;-65
2023/07/13 04:40:17;;;;;;;;;;;;;;;;;;4992641;28;20023;-64
2023/07/13 04:42:43;;;;;;;;;;;;;;;;;;4993931;28;19965;-65
2023/07/13 04:45:09;;;;;;;;;;;;;;;;;;4993775;28;20463;-65
2023/07/13 04:47:35;;;;;;;;;;;;;;;;;;4993646;28;19929;-65
2023/07/13 04:50:01;;;;;;;;;;;;;;;;;;4993789;28;19925;-65
2023/07/13 04:52:27;;;;;;;;;;;;;;;;;;4992378;28;19926;-65
2023/07/13 04:54:53;;;;;;;;;;;;;;;;;;4992367;28;19939;-65
2023/07/13 04:57:19;;;;;;;;;;;;;;;;;;4993569;28;20272;-65
2023/07/13 04:59:45;;;;;;;;;;;;;;;;;;4993468;28;19921;-65
2023/07/13 05:02:10;;;;;;;;;;;;;;;;;;4993388;28;19925;-65
2023/07/13 05:04:36;;;;;;;;;;;;;;;;;;4993489;28;19922;-65
2023/07/13 05:07:02;;;;;;;;;;;;;;;;;;4992055;28;20434;-65
2023/07/13 05:09:28;;;;;;;;;;;;;;;;;;4993344;28;19977;-65
2023/07/13 05:11:54;;;;;;;;;;;;;;;;;;4993300;28;19922;-65
2023/07/13 05:14:20;;;;;;;;;;;;;;;;;;4993283;28;20006;-65
2023/07/13 05:16:46;;;;;;;;;;;;;;;;;;4992998;28;19930;-65
2023/07/13 05:19:12;;;;;;;;;;;;;;;;;;4993116;28;20311;-65
2023/07/13 05:21:38;;;;;;;;;;;;;;;;;;4991630;28;19925;-65
2023/07/13 05:24:04;;;;;;;;;;;;;;;;;;4993241;28;19926;-65
2023/07/13 05:26:30;;;;;;;;;;;;;;;;;;4992875;28;20531;-65
2023/07/13 05:28:56;;;;;;;;;;;;;;;;;;4993033;28;19928;-65
2023/07/13 05:31:22;;;;;;;;;;;;;;;;;;4992864;28;20012;-65
2023/07/13 05:33:47;;;;;;;;;;;;;;;;;;4991466;28;19926;-65
2023/07/13 05:36:13;;;;;;;;;;;;;;;;;;4993008;28;20428;-65
2023/07/13 05:38:40;;;;;;;;;;;;;;;;;;4992950;28;20355;-65
2023/07/13 05:41:06;;;;;;;;;;;;;;;;;;4991406;28;19996;-64
2023/07/13 05:43:32;;;;;;;;;;;;;;;;;;4992831;28;20021;-65
2023/07/13 05:45:58;;;;;;;;;;;;;;;;;;4992620;28;19928;-65
2023/07/13 05:48:23;;;;;;;;;;;;;;;;;;4992659;28;20372;-65
2023/07/13 05:50:49;;;;;;;;;;;;;;;;;;4992491;28;19922;-65
2023/07/13 05:53:15;;;;;;;;;;;;;;;;;;4991560;28;20294;-65
2023/07/13 05:55:41;;;;;;;;;;;;;;;;;;4991799;28;20008;-65
2023/07/13 05:58:07;;;;;;;;;;;;;;;;;;4990651;28;19929;-66
2023/07/13 06:00:33;;;;;;;;;;;;;;;;;;4990324;28;19930;-66
2023/07/13 06:02:59;;;;;;;;;;;;;;;;;;4991496;28;19926;-65
2023/07/13 06:05:25;;;;;;;;;;;;;;;;;;4991673;28;19921;-65
2023/07/13 06:07:51;;;;;;;;;;;;;;;;;;4991669;28;19922;-65
2023/07/13 06:10:17;;;;;;;;;;;;;;;;;;4990400;28;19925;-66
2023/07/13 06:12:43;;;;;;;;;;;;;;;;;;4991398;28;19926;-66
2023/07/13 06:15:09;;;;;;;;;;;;;;;;;;4991442;28;19928;-66
2023/07/13 06:17:35;;;;;;;;;;;;;;;;;;4990127;28;19968;-65
2023/07/13 06:20:00;;;;;;;;;;;;;;;;;;4991629;28;19930;-66
2023/07/13 06:22:26;;;;;;;;;;;;;;;;;;4991945;28;19925;-66
2023/07/13 06:24:52;;;;;;;;;;;;;;;;;;4992320;28;19949;-66
2023/07/13 06:27:18;;;;;;;;;;;;;;;;;;4992191;28;19922;-65
2023/07/13 06:29:45;;;;;;;;;;;;;;;;;;4992005;28;19986;-67
2023/07/13 06:32:10;;;;;;;;;;;;;;;;;;4992229;28;19926;-66
2023/07/13 06:34:36;;;;;;;;;;;;;;;;;;4992099;28;19949;-66
2023/07/13 06:37:02;;;;;;;;;;;;;;;;;;4992210;28;20399;-66
2023/07/13 06:39:28;;;;;;;;;;;;;;;;;;4992063;28;20443;-66
2023/07/13 06:41:54;;;;;;;;;;;;;;;;;;4991981;28;19932;-66
2023/07/13 06:44:20;;;;;;;;;;;;;;;;;;4992234;28;20013;-66
2023/07/13 06:46:46;;;;;;;;;;;;;;;;;;4992066;28;19922;-66
2023/07/13 06:49:12;;;;;;;;;;;;;;;;;;4992348;28;20435;-66
2023/07/13 06:51:38;;;;;;;;;;;;;;;;;;4991908;28;19968;-66
2023/07/13 06:54:04;;;;;;;;;;;;;;;;;;4992000;28;20280;-66
2023/07/13 06:56:30;;;;;;;;;;;;;;;;;;4992094;28;19925;-66
2023/07/13 06:58:55;;;;;;;;;;;;;;;;;;4992048;28;19926;-66
2023/07/13 07:01:21;;;;;;;;;;;;;;;;;;4992192;28;19921;-66
2023/07/13 07:03:47;;;;;;;;;;;;;;;;;;4992252;28;19921;-66
2023/07/13 07:06:14;;;;;;;;;;;;;;;;;;5001042;23;19928;-61
2023/07/13 07:08:40;;;;;;;;;;;;;;;;;;5012711;28;20286;-61
2023/07/13 07:11:06;;;;;;;;;;;;;;;;;;5011751;28;19922;-62
2023/07/13 07:13:32;;;;;;;;;;;;;;;;;;5009765;28;19933;-61
2023/07/13 07:15:59;;;;;;;;;;;;;;;;;;5014279;28;19937;-61
2023/07/13 07:18:26;;;;;;;;;;;;;;;;;;5014880;28;20295;-61
2023/07/13 07:20:52;;;;;;;;;;;;;;;;;;5014600;28;19935;-62
2023/07/13 07:23:18;;;;;;;;;;;;;;;;;;5014314;28;19921;-61
2023/07/13 07:25:44;;;;;;;;;;;;;;;;;;5014559;28;19925;-61
2023/07/13 07:28:10;;;;;;;;;;;;;;;;;;5012995;28;19922;-62
2023/07/13 07:30:37;;;;;;;;;;;;;;;;;;5014117;28;20017;-62
2023/07/13 07:33:03;;;;;;;;;;;;;;;;;;5014476;28;19925;-61
2023/07/13 07:35:29;;;;;;;;;;;;;;;;;;5013345;28;20349;-61
2023/07/13 07:37:55;;;;;;;;;;;;;;;;;;5014646;28;19922;-61
2023/07/13 07:40:21;;;;;;;;;;;;;;;;;;5014946;28;20006;-61
2023/07/13 07:42:47;;;;;;;;;;;;;;;;;;5014434;28;19959;-61
2023/07/13 07:45:13;;;;;;;;;;;;;;;;;;5013424;28;19968;-61
2023/07/13 07:47:39;;;;;;;;;;;;;;;;;;5014426;28;19922;-61
2023/07/13 07:50:05;;;;;;;;;;;;;;;;;;5013372;28;19932;-61
2023/07/13 07:52:31;;;;;;;;;;;;;;;;;;5014382;28;20290;-61
2023/07/13 07:54:57;;;;;;;;;;;;;;;;;;5014359;28;19928;-61
2023/07/13 07:57:23;;;;;;;;;;;;;;;;;;5014414;28;19925;-61
2023/07/13 07:59:49;;;;;;;;;;;;;;;;;;5014328;28;19926;-61
2023/07/13 08:02:14;;;;;;;;;;;;;;;;;;5014365;28;20498;-61
2023/07/13 08:04:40;;;;;;;;;;;;;;;;;;5012865;28;19925;-61
2023/07/13 08:07:06;;;;;;;;;;;;;;;;;;5014085;28;20370;-61
2023/07/13 08:09:32;;;;;;;;;;;;;;;;;;5013985;28;19932;-61
2023/07/13 08:11:58;;;;;;;;;;;;;;;;;;5014229;28;19925;-61
2023/07/13 08:14:24;;;;;;;;;;;;;;;;;;5012869;28;19932;-61
2023/07/13 08:16:50;;;;;;;;;;;;;;;;;;5013973;28;19928;-61
2023/07/13 08:19:16;;;;;;;;;;;;;;;;;;5013995;28;19925;-61
2023/07/13 08:21:43;;;;;;;;;;;;;;;;;;5013912;28;20346;-62
2023/07/13 08:24:08;;;;;;;;;;;;;;;;;;5013802;28;19921;-61
2023/07/13 08:26:34;;;;;;;;;;;;;;;;;;5013696;28;19975;-61
2023/07/13 08:29:00;;;;;;;;;;;;;;;;;;5013733;28;19929;-61
2023/07/13 08:31:26;;;;;;;;;;;;;;;;;;5013791;28;19921;-61
2023/07/13 08:33:52;;;;;;;;;;;;;;;;;;5013646;28;19929;-61
2023/07/13 08:36:18;;;;;;;;;;;;;;;;;;5013681;28;20606;-61
2023/07/13 08:38:44;;;;;;;;;;;;;;;;;;5013394;28;19961;-61
2023/07/13 08:41:10;;;;;;;;;;;;;;;;;;5013443;28;20382;-61
2023/07/13 08:43:36;;;;;;;;;;;;;;;;;;4995616;28;19925;-61
2023/07/13 08:46:02;;;;;;;;;;;;;;;;;;5012132;28;19930;-61
2023/07/13 08:48:28;;;;;;;;;;;;;;;;;;5013413;28;19929;-62
2023/07/13 08:50:54;;;;;;;;;;;;;;;;;;5013459;28;19921;-62
2023/07/13 08:53:19;;;;;;;;;;;;;;;;;;5013195;28;19925;-62
2023/07/13 08:55:45;;;;;;;;;;;;;;;;;;5013435;28;19932;-62
2023/07/13 08:58:11;;;;;;;;;;;;;;;;;;5013318;28;19926;-63
2023/07/13 09:00:37;;;;;;;;;;;;;;;;;;5013109;28;19967;-63
2023/07/13 09:03:03;;;;;;;;;;;;;;;;;;5013290;28;19925;-63
2023/07/13 09:05:30;;;;;;;;;;;;;;;;;;5013153;28;19926;-62
2023/07/13 09:07:56;;;;;;;;;;;;;;;;;;5012903;28;19944;-63
2023/07/13 09:10:22;;;;;;;;;;;;;;;;;;5013129;28;19921;-63
2023/07/13 09:12:48;;;;;;;;;;;;;;;;;;5013060;28;19929;-63
2023/07/13 09:15:14;;;;;;;;;;;;;;;;;;5011621;28;19925;-63
2023/07/13 09:17:40;;;;;;;;;;;;;;;;;;5012992;28;19925;-63
2023/07/13 09:20:06;;;;;;;;;;;;;;;;;;5012921;28;19972;-62
2023/07/13 09:22:32;;;;;;;;;;;;;;;;;;5012779;28;19925;-63
2023/07/13 09:24:58;;;;;;;;;;;;;;;;;;5013013;28;19928;-63
2023/07/13 09:27:24;;;;;;;;;;;;;;;;;;5012921;28;20346;-63
2023/07/13 09:29:50;;;;;;;;;;;;;;;;;;5012673;28;19925;-63
2023/07/13 09:32:16;;;;;;;;;;;;;;;;;;5012839;28;20283;-63
2023/07/13 09:34:42;;;;;;;;;;;;;;;;;;5012457;28;19937;-63
2023/07/13 09:37:08;;;;;;;;;;;;;;;;;;5011995;28;19925;-63
2023/07/13 09:39:35;;;;;;;;;;;;;;;;;;5012537;28;19925;-63
2023/07/13 09:42:01;;;;;;;;;;;;;;;;;;5012728;28;19928;-63
2023/07/13 09:44:28;;;;;;;;;;;;;;;;;;5012575;28;20012;-62
2023/07/13 09:46:54;;;;;;;;;;;;;;;;;;5012550;28;20291;-62
2023/07/13 09:49:20;;;;;;;;;;;;;;;;;;5012324;28;19926;-62
2023/07/13 09:51:46;;;;;;;;;;;;;;;;;;5012305;28;19921;-62
2023/07/13 09:54:12;;;;;;;;;;;;;;;;;;5012436;28;19929;-63
2023/07/13 09:56:38;;;;;;;;;;;;;;;;;;5012298;28;20403;-62
2023/07/13 09:59:04;;;;;;;;;;;;;;;;;;5012390;28;19929;-62
2023/07/13 10:01:30;;;;;;;;;;;;;;;;;;5011954;28;20617;-62
2023/07/13 10:03:56;;;;;;;;;;;;;;;;;;5012073;28;19921;-62
2023/07/13 10:06:22;;;;;;;;;;;;;;;;;;5011687;28;19933;-62
2023/07/13 10:08:47;;;;;;;;;;;;;;;;;;5012375;28;19921;-62
2023/07/13 10:11:13;;;;;;;;;;;;;;;;;;5010707;28;19928;-62
2023/07/13 10:13:39;;;;;;;;;;;;;;;;;;5012178;28;19988;-62
2023/07/13 10:16:05;;;;;;;;;;;;;;;;;;5012101;28;19929;-62
2023/07/13 10:18:31;;;;;;;;;;;;;;;;;;5012065;28;19921;-62
2023/07/13 10:20:57;;;;;;;;;;;;;;;;;;5011986;28;19968;-62
2023/07/13 10:23:23;;;;;;;;;;;;;;;;;;5012238;28;19991;-62
2023/07/13 10:25:49;;;;;;;;;;;;;;;;;;5011912;28;20386;-62
2023/07/13 10:28:15;;;;;;;;;;;;;;;;;;5012218;28;19929;-62
2023/07/13 10:30:41;;;;;;;;;;;;;;;;;;5011911;28;19976;-62
2023/07/13 10:33:08;;;;;;;;;;;;;;;;;;5011216;28;20406;-62
2023/07/13 10:35:34;;;;;;;;;;;;;;;;;;5011768;28;19996;-62
2023/07/13 10:38:01;;;;;;;;;;;;;;;;;;5012268;28;20028;-63
2023/07/13 10:40:27;;;;;;;;;;;;;;;;;;5012078;28;19921;-62
2023/07/13 10:42:53;;;;;;;;;;;;;;;;;;5011988;28;20244;-62
2023/07/13 10:45:19;;;;;;;;;;;;;;;;;;5011746;28;20391;-63
2023/07/13 10:47:44;;;;;;;;;;;;;;;;;;5011812;28;19925;-63
2023/07/13 10:50:10;;;;;;;;;;;;;;;;;;5014862;28;20345;-62
2023/07/13 10:52:37;;;;;;;;;;;;;;;;;;5015314;28;19922;-62
2023/07/13 10:55:03;;;;;;;;;;;;;;;;;;5015761;28;19929;-62
2023/07/13 10:57:29;;;;;;;;;;;;;;;;;;4997805;28;20271;-62
2023/07/13 10:59:55;;;;;;;;;;;;;;;;;;5015440;28;19929;-63
2023/07/13 11:02:21;;;;;;;;;;;;;;;;;;5015404;28;19921;-63
2023/07/13 11:04:49;;;;;;;;;;;;;;;;;;5015370;28;19925;-62
2023/07/13 11:07:15;;;;;;;;;;;;;;;;;;5015272;28;19929;-62
2023/07/13 11:09:44;;;;;;;;;;;;;;;;;;5015375;28;19925;-62
2023/07/13 11:12:14;;;;;;;;;;;;;;;;;;5015343;28;19921;-62
2023/07/13 11:14:40;;;;;;;;;;;;;;;;;;5015167;28;19929;-62
2023/07/13 11:17:06;;;;;;;;;;;;;;;;;;5015033;28;20352;-62
2023/07/13 11:19:32;;;;;;;;;;;;;;;;;;5014072;28;19921;-62
2023/07/13 11:21:58;;;;;;;;;;;;;;;;;;5015026;28;20382;-62
2023/07/13 11:24:24;;;;;;;;;;;;;;;;;;5015126;28;19968;-62
2023/07/13 11:26:50;;;;;;;;;;;;;;;;;;5014894;28;19976;-62
2023/07/13 11:29:16;;;;;;;;;;;;;;;;;;5013625;28;20075;-62
2023/07/13 11:31:43;;;;;;;;;;;;;;;;;;5014723;28;20378;-62
2023/07/13 11:34:09;;;;;;;;;;;;;;;;;;5015046;28;19925;-62
2023/07/13 11:36:35;;;;;;;;;;;;;;;;;;5014741;28;19932;-62
2023/07/13 11:39:01;;;;;;;;;;;;;;;;;;5014808;28;20020;-62
2023/07/13 11:41:28;;;;;;;;;;;;;;;;;;5014894;28;20287;-62
2023/07/13 11:43:54;;;;;;;;;;;;;;;;;;5014717;28;19922;-61
2023/07/13 11:46:20;;;;;;;;;;;;;;;;;;5014517;28;19927;-61
2023/07/13 11:48:47;;;;;;;;;;;;;;;;;;5014812;28;19925;-61
2023/07/13 11:51:14;;;;;;;;;;;;;;;;;;5014580;28;19977;-62
2023/07/13 11:53:40;;;;;;;;;;;;;;;;;;5014400;28;20375;-61
2023/07/13 11:56:06;;;;;;;;;;;;;;;;;;5014516;28;19929;-61
2023/07/13 11:58:32;;;;;;;;;;;;;;;;;;5014314;28;19925;-61
2023/07/13 12:00:58;;;;;;;;;;;;;;;;;;5013679;28;20376;-61
2023/07/13 12:03:24;;;;;;;;;;;;;;;;;;5014473;28;19932;-62
2023/07/13 12:05:50;;;;;;;;;;;;;;;;;;5014392;28;19929;-61
2023/07/13 12:08:15;;;;;;;;;;;;;;;;;;5013906;28;19925;-61
2023/07/13 12:10:42;;;;;;;;;;;;;;;;;;5014257;28;19929;-62
2023/07/13 12:13:08;;;;;;;;;;;;;;;;;;5013953;28;20307;-61
2023/07/13 12:15:34;;;;;;;;;;;;;;;;;;5012800;28;19925;-61
2023/07/13 12:17:59;;;;;;;;;;;;;;;;;;5014105;28;19966;-61
2023/07/13 12:20:25;;;;;;;;;;;;;;;;;;5014045;28;19992;-61
2023/07/13 12:22:51;;;;;;;;;;;;;;;;;;5013833;28;19925;-61
2023/07/13 12:25:18;;;;;;;;;;;;;;;;;;5012666;28;19944;-62
2023/07/13 12:27:44;;;;;;;;;;;;;;;;;;5013929;28;19921;-62
2023/07/13 12:30:10;;;;;;;;;;;;;;;;;;5013852;28;19936;-61
2023/07/13 12:32:36;;;;;;;;;;;;;;;;;;5013826;28;20307;-62
2023/07/13 12:35:04;;;;;;;;;;;;;;;;;;5013687;28;19929;-62
2023/07/13 12:37:31;;;;;;;;;;;;;;;;;;5012374;28;19921;-61
2023/07/13 12:39:56;;;;;;;;;;;;;;;;;;5012942;28;19971;-62
2023/07/13 12:42:28;;;;;;;;;;;;;;;;;;5012934;28;19922;-61
2023/07/13 12:44:54;;;;;;;;;;;;;;;;;;5012012;28;19969;-61
2023/07/13 12:47:20;;;;;;;;;;;;;;;;;;5012960;28;19930;-62
2023/07/13 12:49:46;;;;;;;;;;;;;;;;;;5013006;28;20434;-61
2023/07/13 12:52:12;;;;;;;;;;;;;;;;;;5011513;28;19933;-62
2023/07/13 12:54:38;;;;;;;;;;;;;;;;;;5012294;28;20387;-62
2023/07/13 12:57:09;;;;;;;;;;;;;;;;;;5012276;28;19925;-62
2023/07/13 12:59:36;;;;;;;;;;;;;;;;;;5011191;28;20418;-62
2023/07/13 13:02:02;;;;;;;;;;;;;;;;;;5012902;28;19996;-62
2023/07/13 13:04:28;;;;;;;;;;;;;;;;;;5013047;28;19976;-62
2023/07/13 13:06:54;;;;;;;;;;;;;;;;;;5012456;28;19933;-62
2023/07/13 13:09:20;;;;;;;;;;;;;;;;;;5012935;28;19921;-62
2023/07/13 13:11:46;;;;;;;;;;;;;;;;;;5012324;28;19922;-62
2023/07/13 13:14:12;;;;;;;;;;;;;;;;;;5012222;28;20418;-61
2023/07/13 13:16:38;;;;;;;;;;;;;;;;;;5012501;28;19926;-62
2023/07/13 13:19:04;;;;;;;;;;;;;;;;;;5010948;28;20008;-62
2023/07/13 13:21:32;;;;;;;;;;;;;;;;;;5012227;28;20007;-62
2023/07/13 13:23:59;;;;;;;;;;;;;;;;;;5012078;28;19929;-62
2023/07/13 13:26:25;;;;;;;;;;;;;;;;;;5012354;28;19932;-62
2023/07/13 13:28:52;;;;;;;;;;;;;;;;;;5012513;28;20299;-61
2023/07/13 13:31:18;;;;;;;;;;;;;;;;;;5012354;28;19925;-62
2023/07/13 13:33:45;;;;;;;;;;;;;;;;;;5011982;28;19932;-62
2023/07/13 13:36:11;;;;;;;;;;;;;;;;;;5012339;28;19932;-61
2023/07/13 13:38:37;;;;;;;;;;;;;;;;;;5012336;28;19921;-62
2023/07/13 13:41:03;;;;;;;;;;;;;;;;;;5012484;28;19925;-61
2023/07/13 13:43:29;;;;;;;;;;;;;;;;;;5011066;28;19925;-61
2023/07/13 13:45:55;;;;;;;;;;;;;;;;;;5012635;28;19980;-61
2023/07/13 13:48:21;;;;;;;;;;;;;;;;;;5012291;28;19929;-62
2023/07/13 13:50:47;;;;;;;;;;;;;;;;;;5012449;28;19921;-62
2023/07/13 13:53:13;;;;;;;;;;;;;;;;;;5012137;28;20260;-62
2023/07/13 13:55:41;;;;;;;;;;;;;;;;;;5012187;28;19928;-62
2023/07/13 13:58:07;;;;;;;;;;;;;;;;;;5012241;28;20391;-62
2023/07/13 14:00:33;;;;;;;;;;;;;;;;;;5012172;28;19948;-62
2023/07/13 14:02:59;;;;;;;;;;;;;;;;;;5012290;28;19925;-62
2023/07/13 14:05:25;;;;;;;;;;;;;;;;;;5012097;28;19925;-62
2023/07/13 14:07:52;;;;;;;;;;;;;;;;;;5012036;28;19937;-62
2023/07/13 14:10:18;;;;;;;;;;;;;;;;;;5011962;28;20360;-62
2023/07/13 14:12:44;;;;;;;;;;;;;;;;;;5012232;28;19992;-62
2023/07/13 14:15:10;;;;;;;;;;;;;;;;;;5012047;28;19979;-61
2023/07/13 14:17:36;;;;;;;;;;;;;;;;;;5010860;28;19979;-61
2023/07/13 14:20:04;;;;;;;;;;;;;;;;;;5012070;28;19936;-61
2023/07/13 14:22:30;;;;;;;;;;;;;;;;;;5010676;28;19932;-62
2023/07/13 14:24:58;;;;;;;;;;;;;;;;;;5013731;28;20279;-62
2023/07/13 14:27:24;;;;;;;;;;;;;;;;;;5016120;28;19921;-61
2023/07/13 14:29:50;;;;;;;;;;;;;;;;;;5015950;28;20040;-62
2023/07/13 14:32:16;;;;;;;;;;;;;;;;;;5014613;28;19921;-62
2023/07/13 14:34:42;;;;;;;;;;;;;;;;;;5015729;28;20429;-61
2023/07/13 14:37:08;;;;;;;;;;;;;;;;;;5015809;28;19921;-61
2023/07/13 14:39:34;;;;;;;;;;;;;;;;;;5014351;28;19933;-61
2023/07/13 14:42:00;;;;;;;;;;;;;;;;;;5015731;28;20385;-62
2023/07/13 14:44:26;;;;;;;;;;;;;;;;;;5015706;28;19925;-61
2023/07/13 14:46:52;;;;;;;;;;;;;;;;;;5015723;28;19972;-61
2023/07/13 14:49:18;;;;;;;;;;;;;;;;;;5015605;28;19922;-61
2023/07/13 14:51:44;;;;;;;;;;;;;;;;;;5014278;28;19980;-61
2023/07/13 14:54:11;;;;;;;;;;;;;;;;;;5015456;28;19929;-62
2023/07/13 14:56:37;;;;;;;;;;;;;;;;;;5015471;28;20346;-62
2023/07/13 14:59:04;;;;;;;;;;;;;;;;;;5014042;28;19925;-62
2023/07/13 15:01:30;;;;;;;;;;;;;;;;;;5015344;28;19929;-62
2023/07/13 15:03:56;;;;;;;;;;;;;;;;;;5015421;28;19925;-62
2023/07/13 15:06:22;;;;;;;;;;;;;;;;;;5015018;28;19963;-61
2023/07/13 15:08:48;;;;;;;;;;;;;;;;;;5015292;28;20335;-62
2023/07/13 15:11:14;;;;;;;;;;;;;;;;;;5015208;28;19948;-62
2023/07/13 15:13:40;;;;;;;;;;;;;;;;;;5015197;28;20013;-62
2023/07/13 15:16:07;;;;;;;;;;;;;;;;;;5013541;28;19933;-61
2023/07/13 15:18:34;;;;;;;;;;;;;;;;;;5014893;28;19975;-62
2023/07/13 15:21:03;;;;;;;;;;;;;;;;;;5014480;28;20405;-62
2023/07/13 15:23:29;;;;;;;;;;;;;;;;;;5014864;28;19925;-61
2023/07/13 15:25:55;;;;;;;;;;;;;;;;;;5014662;28;19927;-61
2023/07/13 15:28:21;;;;;;;;;;;;;;;;;;5014886;28;19921;-61
2023/07/13 15:30:47;;;;;;;;;;;;;;;;;;5014819;28;19929;-61
2023/07/13 15:33:13;;;;;;;;;;;;;;;;;;5014665;28;20008;-61
2023/07/13 15:35:41;;;;;;;;;;;;;;;;;;5013565;28;20064;-62
2023/07/13 15:38:07;;;;;;;;;;;;;;;;;;5014674;28;20442;-61
2023/07/13 15:40:33;;;;;;;;;;;;;;;;;;5014568;28;19921;-61
2023/07/13 15:42:59;;;;;;;;;;;;;;;;;;5014708;28;19932;-61
2023/07/13 15:45:25;;;;;;;;;;;;;;;;;;5013138;28;19925;-61
2023/07/13 15:47:51;;;;;;;;;;;;;;;;;;5014453;28;19921;-62
2023/07/13 15:50:17;;;;;;;;;;;;;;;;;;5014343;28;19921;-62
2023/07/13 15:52:42;;;;;;;;;;;;;;;;;;5014611;28;19932;-61
2023/07/13 15:55:08;;;;;;;;;;;;;;;;;;5014358;28;19976;-61
2023/07/13 15:57:35;;;;;;;;;;;;;;;;;;5012902;28;20540;-62
2023/07/13 16:00:01;;;;;;;;;;;;;;;;;;5014270;28;19976;-61
2023/07/13 16:02:27;;;;;;;;;;;;;;;;;;5014109;28;19925;-61
2023/07/13 16:04:53;;;;;;;;;;;;;;;;;;5014417;28;19922;-61
2023/07/13 16:07:19;;;;;;;;;;;;;;;;;;5013902;28;19925;-61
2023/07/13 16:09:45;;;;;;;;;;;;;;;;;;5014264;28;20098;-61
2023/07/13 16:12:11;;;;;;;;;;;;;;;;;;5014028;28;19925;-61
2023/07/13 16:14:37;;;;;;;;;;;;;;;;;;5014198;28;19925;-61
2023/07/13 16:17:05;;;;;;;;;;;;;;;;;;5013857;28;20012;-62
2023/07/13 16:19:31;;;;;;;;;;;;;;;;;;5014177;28;19929;-61
2023/07/13 16:21:59;;;;;;;;;;;;;;;;;;5013823;28;19929;-62
2023/07/13 16:24:26;;;;;;;;;;;;;;;;;;5013861;28;19932;-61
2023/07/13 16:26:52;;;;;;;;;;;;;;;;;;5013809;28;19925;-61
2023/07/13 16:29:18;;;;;;;;;;;;;;;;;;5013715;28;20691;-61
2023/07/13 16:31:44;;;;;;;;;;;;;;;;;;5013622;28;19929;-61
2023/07/13 16:34:10;;;;;;;;;;;;;;;;;;5012447;28;19932;-61
2023/07/13 16:36:36;;;;;;;;;;;;;;;;;;5013671;28;19928;-62